createdAt,value
2018-10-06T00:00:37.924Z,7.57
2018-10-06T00:03:06.127Z,6.90
2018-10-06T00:05:34.280Z,6.87
2018-10-06T00:08:02.484Z,7.13
2018-10-06T00:10:30.581Z,6.30
2018-10-06T00:12:58.799Z,6.60
2018-10-06T00:15:26.947Z,6.73
2018-10-06T00:17:55.118Z,7.17
2018-10-06T00:20:23.332Z,6.83
2018-10-06T00:22:51.449Z,7.27
2018-10-06T00:25:19.652Z,6.77
2018-10-06T00:27:47.778Z,6.90
2018-10-06T00:30:15.991Z,8.10
2018-10-06T00:32:44.856Z,6.87
2018-10-06T00:35:13.096Z,6.73
2018-10-06T00:37:41.986Z,6.73
2018-10-06T00:40:10.165Z,6.83
2018-10-06T00:42:38.408Z,6.77
2018-10-06T00:45:06.559Z,7.60
2018-10-06T00:47:34.677Z,6.40
2018-10-06T00:50:02.818Z,6.20
2018-10-06T00:52:31.063Z,6.83
2018-10-06T00:54:59.212Z,7.07
2018-10-06T00:57:27.606Z,7.17
2018-10-06T00:59:55.717Z,7.27
2018-10-06T01:02:23.860Z,7.20
2018-10-06T01:04:52.052Z,6.37
2018-10-06T01:07:20.296Z,8.20
2018-10-06T01:09:48.414Z,6.37
2018-10-06T01:12:16.582Z,6.40
2018-10-06T01:14:44.729Z,6.57
2018-10-06T01:17:12.981Z,7.37
2018-10-06T01:19:41.673Z,8.07
2018-10-06T01:22:09.850Z,7.07
2018-10-06T01:24:38.075Z,7.60
2018-10-06T01:27:06.670Z,7.60
2018-10-06T01:29:34.866Z,7.23
2018-10-06T01:32:04.516Z,7.10
2018-10-06T01:34:32.986Z,7.07
2018-10-06T01:37:01.209Z,8.33
2018-10-06T01:39:29.742Z,7.63
2018-10-06T01:41:57.946Z,7.77
2018-10-06T01:44:26.169Z,7.00
2018-10-06T01:46:54.324Z,6.20
2018-10-06T01:49:22.541Z,6.40
2018-10-06T01:51:50.968Z,7.37
2018-10-06T01:54:19.134Z,6.67
2018-10-06T01:56:47.212Z,6.73
2018-10-06T01:59:15.538Z,7.00
2018-10-06T02:01:43.722Z,7.80
2018-10-06T02:04:11.945Z,8.73
2018-10-06T02:06:40.150Z,7.43
2018-10-06T02:09:08.342Z,7.83
2018-10-06T02:11:36.483Z,8.40
2018-10-06T02:14:04.763Z,8.17
2018-10-06T02:16:32.911Z,9.10
2018-10-06T02:19:01.106Z,8.60
2018-10-06T02:21:29.252Z,8.07
2018-10-06T02:23:57.406Z,7.03
2018-10-06T02:26:25.545Z,8.20
2018-10-06T02:28:53.692Z,8.30
2018-10-06T02:31:21.829Z,7.80
2018-10-06T02:33:49.958Z,7.57
2018-10-06T02:36:18.171Z,9.03
2018-10-06T02:38:46.357Z,8.60
2018-10-06T02:41:14.486Z,8.57
2018-10-06T02:43:42.693Z,8.70
2018-10-06T02:46:10.860Z,8.67
2018-10-06T02:48:39.022Z,9.80
2018-10-06T02:51:07.165Z,9.03
2018-10-06T02:53:35.344Z,9.13
2018-10-06T02:56:03.478Z,8.90
2018-10-06T02:58:31.639Z,9.73
2018-10-06T03:00:59.784Z,9.57
2018-10-06T03:03:27.979Z,9.23
2018-10-06T03:05:56.102Z,9.07
2018-10-06T03:08:24.219Z,9.13
2018-10-06T03:10:52.376Z,9.10
2018-10-06T03:13:20.495Z,9.53
2018-10-06T03:15:48.649Z,9.10
2018-10-06T03:18:16.795Z,9.37
2018-10-06T03:20:44.954Z,9.10
2018-10-06T03:23:13.077Z,9.80
2018-10-06T03:25:41.209Z,9.63
2018-10-06T03:28:09.340Z,10.27
2018-10-06T03:30:37.578Z,9.43
2018-10-06T03:33:05.801Z,10.17
2018-10-06T03:35:34.008Z,9.80
2018-10-06T03:38:02.229Z,10.77
2018-10-06T03:40:30.430Z,10.47
2018-10-06T03:42:58.559Z,10.23
2018-10-06T03:45:26.805Z,10.33
2018-10-06T03:47:55.048Z,10.03
2018-10-06T03:50:23.201Z,10.37
2018-10-06T03:52:51.597Z,9.47
2018-10-06T03:55:19.729Z,9.53
2018-10-06T03:57:47.821Z,9.27
2018-10-06T04:00:16.012Z,10.90
2018-10-06T04:02:44.133Z,9.47
2018-10-06T04:05:12.273Z,9.60
2018-10-06T04:07:40.487Z,9.27
2018-10-06T04:10:08.673Z,9.00
2018-10-06T04:12:37.409Z,9.53
2018-10-06T04:15:06.022Z,9.07
2018-10-06T04:17:34.199Z,9.87
2018-10-06T04:20:02.411Z,8.33
2018-10-06T04:22:30.654Z,9.80
2018-10-06T04:24:58.877Z,9.77
2018-10-06T04:27:27.092Z,10.23
2018-10-06T04:29:55.258Z,9.70
2018-10-06T04:32:23.437Z,10.80
2018-10-06T04:34:51.675Z,9.80
2018-10-06T04:37:19.899Z,9.70
2018-10-06T04:39:48.155Z,9.70
2018-10-06T04:42:16.363Z,10.20
2018-10-06T04:44:44.549Z,9.10
2018-10-06T04:47:12.749Z,8.67
2018-10-06T04:49:41.773Z,8.67
2018-10-06T04:52:09.911Z,9.53
2018-10-06T04:54:38.072Z,8.67
2018-10-06T04:57:06.258Z,9.83
2018-10-06T04:59:34.496Z,9.60
2018-10-06T05:02:02.740Z,8.57
2018-10-06T05:04:31.008Z,9.60
2018-10-06T05:06:59.233Z,9.50
2018-10-06T05:09:27.506Z,8.80
2018-10-06T05:11:55.748Z,8.50
2018-10-06T05:14:23.999Z,8.50
2018-10-06T05:16:52.134Z,9.13
2018-10-06T05:19:20.341Z,9.67
2018-10-06T05:21:48.534Z,8.37
2018-10-06T05:24:16.817Z,8.80
2018-10-06T05:26:45.339Z,9.93
2018-10-06T05:29:13.528Z,8.83
2018-10-06T05:31:41.724Z,9.90
2018-10-06T05:34:10.262Z,9.63
2018-10-06T05:36:38.396Z,9.67
2018-10-06T05:39:07.373Z,9.60
2018-10-06T05:41:35.603Z,8.87
2018-10-06T05:44:04.197Z,9.10
2018-10-06T05:46:32.650Z,9.33
2018-10-06T05:49:00.800Z,10.30
2018-10-06T05:51:29.041Z,8.93
2018-10-06T05:53:57.611Z,8.47
2018-10-06T05:56:25.947Z,8.53
2018-10-06T05:58:54.165Z,8.77
2018-10-06T06:01:22.383Z,7.80
2018-10-06T06:03:50.590Z,7.63
2018-10-06T06:06:18.906Z,7.60
2018-10-06T06:08:47.116Z,8.33
2018-10-06T06:11:15.378Z,7.70
2018-10-06T06:13:43.568Z,7.43
2018-10-06T06:16:11.744Z,7.57
2018-10-06T06:18:40.018Z,7.67
2018-10-06T06:21:08.200Z,7.90
2018-10-06T06:23:36.400Z,7.53
2018-10-06T06:26:04.571Z,7.97
2018-10-06T06:28:32.791Z,7.80
2018-10-06T06:31:01.059Z,7.87
2018-10-06T06:33:29.273Z,7.80
2018-10-06T06:35:57.423Z,8.10
2018-10-06T06:38:25.673Z,8.27
2018-10-06T06:40:53.811Z,8.47
2018-10-06T06:43:21.950Z,8.17
2018-10-06T06:45:50.111Z,8.00
2018-10-06T06:48:18.213Z,9.03
2018-10-06T06:50:46.339Z,9.30
2018-10-06T06:53:14.427Z,9.10
2018-10-06T06:55:42.636Z,9.07
2018-10-06T06:58:10.799Z,9.27
2018-10-06T07:00:39.053Z,8.73
2018-10-06T07:03:07.251Z,8.67
2018-10-06T07:05:35.415Z,8.77
2018-10-06T07:08:03.657Z,8.90
2018-10-06T07:10:31.841Z,8.07
2018-10-06T07:13:00.030Z,9.07
2018-10-06T07:15:28.357Z,8.73
2018-10-06T07:17:56.577Z,8.20
2018-10-06T07:20:24.877Z,8.17
2018-10-06T07:22:53.023Z,9.60
2018-10-06T07:25:21.254Z,9.23
2018-10-06T07:27:49.419Z,9.77
2018-10-06T07:30:17.715Z,8.73
2018-10-06T07:32:45.905Z,9.03
2018-10-06T07:35:14.088Z,9.47
2018-10-06T07:37:42.275Z,9.50
2018-10-06T07:40:10.633Z,9.07
2018-10-06T07:42:38.793Z,9.37
2018-10-06T07:45:07.010Z,8.60
2018-10-06T07:47:35.168Z,9.87
2018-10-06T07:50:03.264Z,9.77
2018-10-06T07:52:31.449Z,8.70
2018-10-06T07:54:59.605Z,9.13
2018-10-06T07:57:27.762Z,8.30
2018-10-06T07:59:55.949Z,8.67
2018-10-06T08:02:24.101Z,8.60
2018-10-06T08:04:52.281Z,8.43
2018-10-06T08:07:20.464Z,8.60
2018-10-06T08:09:48.745Z,8.07
2018-10-06T08:12:16.930Z,8.07
2018-10-06T08:14:45.149Z,7.33
2018-10-06T08:17:13.317Z,8.13
2018-10-06T08:19:41.561Z,8.40
2018-10-06T08:22:09.939Z,8.47
2018-10-06T08:24:38.201Z,8.43
2018-10-06T08:27:06.328Z,8.47
2018-10-06T08:29:34.518Z,8.40
2018-10-06T08:32:02.617Z,8.70
2018-10-06T08:34:30.707Z,7.17
2018-10-06T08:36:58.845Z,7.87
2018-10-06T08:39:27.020Z,8.30
2018-10-06T08:41:55.218Z,8.67
2018-10-06T08:44:23.461Z,8.60
2018-10-06T08:46:51.669Z,8.53
2018-10-06T08:49:19.814Z,7.37
2018-10-06T08:51:47.967Z,8.93
2018-10-06T08:54:16.247Z,8.93
2018-10-06T08:56:44.403Z,8.37
2018-10-06T08:59:14.066Z,8.27
2018-10-06T09:01:42.314Z,9.03
2018-10-06T09:04:10.513Z,8.90
2018-10-06T09:06:38.664Z,9.50
2018-10-06T09:09:08.233Z,10.00
2018-10-06T09:11:36.693Z,10.80
2018-10-06T09:14:05.649Z,10.67
2018-10-06T09:16:33.798Z,9.93
2018-10-06T09:19:02.374Z,11.30
2018-10-06T09:21:30.527Z,10.40
2018-10-06T09:23:58.762Z,10.57
2018-10-06T09:26:26.902Z,10.97
2018-10-06T09:28:55.280Z,10.90
2018-10-06T09:31:23.495Z,11.90
2018-10-06T09:33:51.719Z,10.77
2018-10-06T09:36:19.931Z,11.17
2018-10-06T09:38:48.129Z,11.07
2018-10-06T09:41:16.368Z,10.70
2018-10-06T09:43:44.785Z,11.03
2018-10-06T09:46:13.029Z,11.47
2018-10-06T09:48:41.251Z,11.27
2018-10-06T09:51:09.428Z,11.93
2018-10-06T09:53:37.638Z,11.80
2018-10-06T09:56:05.775Z,12.30
2018-10-06T09:58:34.025Z,11.90
2018-10-06T10:01:07.588Z,12.57
2018-10-06T10:03:41.214Z,12.40
2018-10-06T10:06:09.397Z,12.77
2018-10-06T10:08:37.644Z,12.23
2018-10-06T10:11:05.787Z,11.47
2018-10-06T10:13:33.945Z,11.70
2018-10-06T10:16:02.140Z,11.73
2018-10-06T10:18:30.330Z,12.30
2018-10-06T10:20:58.504Z,11.40
2018-10-06T10:23:27.103Z,11.23
2018-10-06T10:25:55.198Z,11.70
2018-10-06T10:28:23.435Z,11.27
2018-10-06T10:30:51.600Z,13.40
2018-10-06T10:33:19.796Z,13.07
2018-10-06T10:35:48.056Z,11.97
2018-10-06T10:38:16.269Z,12.97
2018-10-06T10:40:44.467Z,12.97
2018-10-06T10:43:12.600Z,13.43
2018-10-06T10:45:40.814Z,13.73
2018-10-06T10:48:09.000Z,12.53
2018-10-06T10:50:37.185Z,11.70
2018-10-06T10:53:05.374Z,11.30
2018-10-06T10:55:33.555Z,12.90
2018-10-06T10:58:01.751Z,12.33
2018-10-06T11:00:29.992Z,11.80
2018-10-06T11:02:58.129Z,11.67
2018-10-06T11:05:26.297Z,11.90
2018-10-06T11:07:54.515Z,11.53
2018-10-06T11:10:22.664Z,11.90
2018-10-06T11:12:50.813Z,11.97
2018-10-06T11:15:18.994Z,11.73
2018-10-06T11:17:47.174Z,11.40
2018-10-06T11:20:15.453Z,11.80
2018-10-06T11:22:43.596Z,12.90
2018-10-06T11:25:11.785Z,12.50
2018-10-06T11:27:39.910Z,12.73
2018-10-06T11:30:08.046Z,12.50
2018-10-06T11:32:36.207Z,12.90
2018-10-06T11:35:04.619Z,12.03
2018-10-06T11:37:33.023Z,11.90
2018-10-06T11:40:01.060Z,11.80
2018-10-06T11:42:29.410Z,11.17
2018-10-06T11:44:57.578Z,12.97
2018-10-06T11:47:25.848Z,13.70
2018-10-06T11:49:54.101Z,12.80
2018-10-06T11:52:22.323Z,11.47
2018-10-06T11:54:50.475Z,12.27
2018-10-06T11:57:18.669Z,12.63
2018-10-06T11:59:46.852Z,11.83
2018-10-06T12:02:15.008Z,11.93
2018-10-06T12:04:43.223Z,12.20
2018-10-06T12:07:11.460Z,12.20
2018-10-06T12:09:39.630Z,10.97
2018-10-06T12:12:07.831Z,12.37
2018-10-06T12:14:36.076Z,11.63
2018-10-06T12:17:04.228Z,10.63
2018-10-06T12:19:32.548Z,9.87
2018-10-06T12:22:00.773Z,10.20
2018-10-06T12:24:28.963Z,12.03
2018-10-06T12:26:57.152Z,10.70
2018-10-06T12:29:25.337Z,10.40
2018-10-06T12:31:53.667Z,10.87
2018-10-06T12:34:21.799Z,9.90
2018-10-06T12:36:49.997Z,9.87
2018-10-06T12:39:19.106Z,11.10
2018-10-06T12:41:47.288Z,11.00
2018-10-06T12:44:15.383Z,9.73
2018-10-06T12:46:43.675Z,10.20
2018-10-06T12:49:12.336Z,10.33
2018-10-06T12:51:40.640Z,10.07
2018-10-06T12:54:08.895Z,11.93
2018-10-06T12:56:37.255Z,10.97
2018-10-06T12:59:05.708Z,11.17
2018-10-06T13:01:33.894Z,10.00
2018-10-06T13:04:02.109Z,9.73
2018-10-06T13:06:30.390Z,10.37
2018-10-06T13:08:59.415Z,10.67
2018-10-06T13:11:27.593Z,10.23
2018-10-06T13:13:55.844Z,10.80
2018-10-06T13:16:24.119Z,10.07
2018-10-06T13:18:52.301Z,9.63
2018-10-06T13:21:20.568Z,8.97
2018-10-06T13:23:48.910Z,9.73
2018-10-06T13:26:17.178Z,7.67
2018-10-06T13:28:45.304Z,8.80
2018-10-06T13:31:13.415Z,8.73
2018-10-06T13:33:41.589Z,8.73
2018-10-06T13:36:09.882Z,8.67
2018-10-06T13:38:38.085Z,8.17
2018-10-06T13:41:06.275Z,9.00
2018-10-06T13:43:34.476Z,8.13
2018-10-06T13:46:02.639Z,8.27
2018-10-06T13:48:30.875Z,7.93
2018-10-06T13:50:59.075Z,7.53
2018-10-06T13:53:27.269Z,8.47
2018-10-06T13:55:55.461Z,8.30
2018-10-06T13:58:23.800Z,7.57
2018-10-06T14:00:52.066Z,7.80
2018-10-06T14:03:20.302Z,7.10
2018-10-06T14:05:48.588Z,6.87
2018-10-06T14:08:16.802Z,7.07
2018-10-06T14:10:45.004Z,7.27
2018-10-06T14:13:13.259Z,7.63
2018-10-06T14:15:41.454Z,7.10
2018-10-06T14:18:09.589Z,6.27
2018-10-06T14:20:37.947Z,6.10
2018-10-06T14:23:06.159Z,6.67
2018-10-06T14:25:34.319Z,6.27
2018-10-06T14:28:02.957Z,6.90
2018-10-06T14:30:31.227Z,6.37
2018-10-06T14:32:59.362Z,6.40
2018-10-06T14:35:27.600Z,5.67
2018-10-06T14:37:55.986Z,5.23
2018-10-06T14:40:24.454Z,5.53
2018-10-06T14:42:52.755Z,4.20
2018-10-06T14:45:21.035Z,4.97
2018-10-06T14:47:49.339Z,4.77
2018-10-06T14:50:17.596Z,4.57
2018-10-06T14:52:45.987Z,4.87
2018-10-06T14:55:14.284Z,4.60
2018-10-06T14:57:42.625Z,4.47
2018-10-06T15:00:10.860Z,5.17
2018-10-06T15:02:39.206Z,4.37
2018-10-06T15:05:07.516Z,4.53
2018-10-06T15:07:36.269Z,4.40
2018-10-06T15:10:04.784Z,4.37
2018-10-06T15:12:33.082Z,4.73
2018-10-06T15:15:01.470Z,4.77
2018-10-06T15:17:29.668Z,4.93
2018-10-06T15:19:58.361Z,4.33
2018-10-06T15:22:26.652Z,5.10
2018-10-06T15:24:54.963Z,4.80
2018-10-06T15:27:23.321Z,4.47
2018-10-06T15:29:51.733Z,4.17
2018-10-06T15:32:20.011Z,3.93
2018-10-06T15:34:49.700Z,4.00
2018-10-06T15:37:17.919Z,3.97
2018-10-06T15:39:46.326Z,4.63
2018-10-06T15:42:14.875Z,4.23
2018-10-06T15:44:43.315Z,3.80
2018-10-06T15:47:11.605Z,4.40
2018-10-06T15:49:39.983Z,4.00
2018-10-06T15:52:08.364Z,4.27
2018-10-06T15:54:36.661Z,4.37
2018-10-06T15:57:04.890Z,4.20
2018-10-06T15:59:33.122Z,4.17
2018-10-06T16:02:01.575Z,4.40
2018-10-06T16:04:29.803Z,3.60
2018-10-06T16:06:58.329Z,3.60
2018-10-06T16:09:26.541Z,3.67
2018-10-06T16:11:54.849Z,3.97
2018-10-06T16:14:23.185Z,4.10
2018-10-06T16:16:51.894Z,3.80
2018-10-06T16:19:20.223Z,4.63
2018-10-06T16:21:48.501Z,4.03
2018-10-06T16:24:16.846Z,4.20
2018-10-06T16:26:45.153Z,4.70
2018-10-06T16:29:13.372Z,4.17
2018-10-06T16:31:42.013Z,4.47
2018-10-06T16:34:10.224Z,4.40
2018-10-06T16:36:38.480Z,4.50
2018-10-06T16:39:07.585Z,4.13
2018-10-06T16:41:35.951Z,4.40
2018-10-06T16:44:04.603Z,4.47
2018-10-06T16:46:32.884Z,4.20
2018-10-06T16:49:01.120Z,4.47
2018-10-06T16:51:29.408Z,4.20
2018-10-06T16:53:57.582Z,4.50
2018-10-06T16:56:25.829Z,5.17
2018-10-06T16:58:54.612Z,4.90
2018-10-06T17:01:23.164Z,4.80
2018-10-06T17:03:51.759Z,4.87
2018-10-06T17:06:20.351Z,4.73
2018-10-06T17:08:48.844Z,4.87
2018-10-06T17:11:17.339Z,4.43
2018-10-06T17:13:45.829Z,5.10
2018-10-06T17:16:14.314Z,4.90
2018-10-06T17:18:43.177Z,4.63
2018-10-06T17:21:11.730Z,5.13
2018-10-06T17:23:40.302Z,4.43
2018-10-06T17:26:08.842Z,5.20
2018-10-06T17:28:37.467Z,5.80
2018-10-06T17:31:06.351Z,5.77
2018-10-06T17:33:34.983Z,5.40
2018-10-06T17:36:03.540Z,5.00
2018-10-06T17:38:32.170Z,5.20
2018-10-06T17:41:00.708Z,5.33
2018-10-06T17:43:30.797Z,5.10
2018-10-06T17:45:59.445Z,5.00
2018-10-06T17:48:28.317Z,5.43
2018-10-06T17:50:57.592Z,5.03
2018-10-06T17:53:26.189Z,5.47
2018-10-06T17:55:55.250Z,6.07
2018-10-06T17:58:23.553Z,6.70
2018-10-06T18:00:53.927Z,6.50
2018-10-06T18:03:22.520Z,6.40
2018-10-06T18:05:52.705Z,7.03
2018-10-06T18:08:20.918Z,6.50
2018-10-06T18:10:49.457Z,6.63
2018-10-06T18:13:18.212Z,7.23
2018-10-06T18:15:46.756Z,7.87
2018-10-06T18:18:15.342Z,8.10
2018-10-06T18:20:44.043Z,7.73
2018-10-06T18:23:12.484Z,7.87
2018-10-06T18:25:41.166Z,8.47
2018-10-06T18:28:09.728Z,8.23
2018-10-06T18:30:38.618Z,8.70
2018-10-06T18:33:06.966Z,9.20
2018-10-06T18:35:35.516Z,9.23
2018-10-06T18:38:03.721Z,9.27
2018-10-06T18:40:31.885Z,9.07
2018-10-06T18:43:00.107Z,9.67
2018-10-06T18:45:28.243Z,11.17
2018-10-06T18:47:56.484Z,10.73
2018-10-06T18:50:24.687Z,10.33
2018-10-06T18:52:52.879Z,10.63
2018-10-06T18:55:21.081Z,9.73
2018-10-06T18:57:49.224Z,9.73
2018-10-06T19:00:17.748Z,9.63
2018-10-06T19:02:46.200Z,10.23
2018-10-06T19:05:14.750Z,9.60
2018-10-06T19:07:43.266Z,9.60
2018-10-06T19:10:11.932Z,9.50
2018-10-06T19:12:40.273Z,9.20
2018-10-06T19:15:08.889Z,9.07
2018-10-06T19:17:37.434Z,9.53
2018-10-06T19:20:06.203Z,13.63
2018-10-06T19:22:34.731Z,9.93
2018-10-06T19:25:03.239Z,10.43
2018-10-06T19:27:31.768Z,11.33
2018-10-06T19:30:00.268Z,12.23
2018-10-06T19:32:28.787Z,12.87
2018-10-06T19:34:57.279Z,12.30
2018-10-06T19:37:25.951Z,13.53
2018-10-06T19:39:54.595Z,12.33
2018-10-06T19:42:23.155Z,13.30
2018-10-06T19:44:51.681Z,13.00
2018-10-06T19:47:20.206Z,13.60
2018-10-06T19:49:48.804Z,12.43
2018-10-06T19:52:17.299Z,14.10
2018-10-06T19:54:46.083Z,14.27
2018-10-06T19:57:14.675Z,14.17
2018-10-06T19:59:43.329Z,13.23
2018-10-06T20:02:11.855Z,12.87
2018-10-06T20:04:40.354Z,13.63
2018-10-06T20:07:09.446Z,14.27
2018-10-06T20:09:37.925Z,13.97
2018-10-06T20:12:07.319Z,14.00
2018-10-06T20:14:35.840Z,13.60
2018-10-06T20:17:04.365Z,12.73
2018-10-06T20:19:32.905Z,12.47
2018-10-06T20:22:01.434Z,13.93
2018-10-06T20:24:29.899Z,12.93
2018-10-06T20:26:58.309Z,13.17
2018-10-06T20:29:26.554Z,13.27
2018-10-06T20:31:54.995Z,14.53
2018-10-06T20:37:00.581Z,12.70
2018-10-06T20:39:28.875Z,12.17
2018-10-06T20:41:57.112Z,9.87
2018-10-06T20:44:25.445Z,11.73
2018-10-06T20:46:53.712Z,11.20
2018-10-06T20:49:21.993Z,11.33
2018-10-06T20:51:50.256Z,11.40
2018-10-06T20:54:18.609Z,10.23
2018-10-06T20:56:46.777Z,10.47
2018-10-06T20:59:14.925Z,10.00
2018-10-06T21:01:43.071Z,12.20
2018-10-06T21:04:11.295Z,16.07
2018-10-06T21:06:39.510Z,14.73
2018-10-06T21:09:08.759Z,13.90
2018-10-06T21:11:36.865Z,13.47
2018-10-06T21:14:05.113Z,12.40
2018-10-06T21:16:33.267Z,12.43
2018-10-06T21:19:01.482Z,12.53
2018-10-06T21:21:29.698Z,11.97
2018-10-06T21:23:57.911Z,12.67
2018-10-06T21:26:26.083Z,12.13
2018-10-06T21:28:54.394Z,11.00
2018-10-06T21:31:22.568Z,15.23
2018-10-06T21:33:50.709Z,12.47
2018-10-06T21:36:18.881Z,12.87
2018-10-06T21:38:47.115Z,11.47
2018-10-06T21:41:15.390Z,11.53
2018-10-06T21:43:43.535Z,11.40
2018-10-06T21:46:11.757Z,10.57
2018-10-06T21:48:39.874Z,9.73
2018-10-06T21:51:08.080Z,8.43
2018-10-06T21:53:36.509Z,9.23
2018-10-06T21:56:04.755Z,10.20
2018-10-06T21:58:32.907Z,11.40
2018-10-06T22:01:06.378Z,9.53
2018-10-06T22:03:34.597Z,9.57
2018-10-06T22:06:02.878Z,10.77
2018-10-06T22:08:31.095Z,11.57
2018-10-06T22:10:59.334Z,10.00
2018-10-06T22:13:27.777Z,10.43
2018-10-06T22:15:56.195Z,9.63
2018-10-06T22:18:24.439Z,9.87
2018-10-06T22:20:52.730Z,8.83
2018-10-06T22:23:20.810Z,8.50
2018-10-06T22:25:49.139Z,10.20
2018-10-06T22:28:17.415Z,9.57
2018-10-06T22:30:45.868Z,10.93
2018-10-06T22:33:14.177Z,10.00
2018-10-06T22:35:42.462Z,17.93
2018-10-06T22:38:10.727Z,18.30
2018-10-06T22:40:38.975Z,15.37
2018-10-06T22:43:07.157Z,14.40
2018-10-06T22:45:35.407Z,13.33
2018-10-06T22:48:03.559Z,13.47
2018-10-06T22:50:31.805Z,13.27
2018-10-06T22:53:00.001Z,12.23
2018-10-06T22:55:28.207Z,12.63
2018-10-06T22:57:56.389Z,12.87
2018-10-06T23:00:24.505Z,15.97
2018-10-06T23:02:52.657Z,17.20
2018-10-06T23:05:20.866Z,16.80
2018-10-06T23:07:49.015Z,13.30
2018-10-06T23:10:17.264Z,16.13
2018-10-06T23:12:45.567Z,13.53
2018-10-06T23:15:13.759Z,14.40
2018-10-06T23:17:41.933Z,14.50
2018-10-06T23:20:10.074Z,13.50
2018-10-06T23:22:38.234Z,11.57
2018-10-06T23:25:06.511Z,12.60
2018-10-06T23:27:34.719Z,11.57
2018-10-06T23:30:02.876Z,12.63
2018-10-06T23:32:31.055Z,14.60
2018-10-06T23:34:59.197Z,12.43
2018-10-06T23:37:27.373Z,12.27
2018-10-06T23:39:55.501Z,12.40
2018-10-06T23:42:23.654Z,12.83
2018-10-06T23:44:51.824Z,13.00
2018-10-06T23:47:19.932Z,12.20
2018-10-06T23:49:48.061Z,12.30
2018-10-06T23:52:16.196Z,11.40
2018-10-06T23:54:44.345Z,10.97
2018-10-06T23:57:12.547Z,11.33
2018-10-06T23:59:40.688Z,12.80
